Bussmann, Ingeborg; Wessels, Martin (2015): Hydrography of water column at station K_17102012 in Lake Constance [dataset]. PANGAEA, https://doi.org/10.1594/PANGAEA.854442, In: Bussmann, I; Wessels, M (2015): Hydrography of water column, methane, and methane oxidation rates at two time series stations in Lake Constance [dataset publication series]. Alfred Wegener Institute - Biological Institute Helgoland, PANGAEA, https://doi.org/10.1594/PANGAEA.854468
Always quote citation above when using data! You can download the citation in several formats below.
Published: 2015-10-29 • DOI registered: 2015-11-27
Coverage:
Latitude: 47.547000 * Longitude: 9.570000
Date/Time Start: 2012-10-17T10:18:33 * Date/Time End: 2012-10-17T10:22:48
Minimum DEPTH, water: 0.208 m * Maximum DEPTH, water: 140.944 m
Event(s):
K_17102012 (deep control) * Latitude: 47.547000 * Longitude: 9.570000 * Date/Time: 2012-10-17T10:18:00 * Lake water depth: 147 m * Method/Device: CTD, Seabird (CTD-R)
Parameter(s):
| # | Name | Short Name | Unit | Principal Investigator | Method/Device | Comment |
|---|---|---|---|---|---|---|
| 1 | DATE/TIME | Date/Time | Bussmann, Ingeborg | Geocode | ||
| 2 | DEPTH, water | Depth water | m | Bussmann, Ingeborg | Geocode | |
| 3 | Pressure, water | Press | dbar | Bussmann, Ingeborg | ||
| 4 | Temperature, water | Temp | °C | Bussmann, Ingeborg | ||
| 5 | Conductivity | Cond | mS/cm | Bussmann, Ingeborg | ||
| 6 | Salinity | Sal | Bussmann, Ingeborg | PSU | ||
| 7 | Sound velocity in water | SV | m/s | Bussmann, Ingeborg | ||
| 8 | Density, mass density | Density | kg/m3 | Bussmann, Ingeborg |
License:
Creative Commons Attribution 3.0 Unported (CC-BY-3.0)
Size:
1536 data points
Data
| 1 Date/Time | 2 Depth water [m] | 3 Press [dbar] | 4 Temp [°C] | 5 Cond [mS/cm] | 6 Sal | 7 SV [m/s] | 8 Density [kg/m3] |
|---|---|---|---|---|---|---|---|
| 2012-10-17T10:18:33 | 0.208 | 0.21 | 14.459 | 0.2342 | 0.1413 | 1464.2 | 999.29 |
| 2012-10-17T10:18:34 | 0.515 | 0.52 | 14.453 | 0.2344 | 0.1414 | 1464.2 | 999.29 |
| 2012-10-17T10:18:35 | 0.862 | 0.87 | 14.469 | 0.2344 | 0.1413 | 1464.3 | 999.29 |
| 2012-10-17T10:18:36 | 1.199 | 1.21 | 14.450 | 0.2343 | 0.1413 | 1464.2 | 999.29 |
| 2012-10-17T10:18:37 | 1.586 | 1.60 | 14.443 | 0.2342 | 0.1413 | 1464.2 | 999.29 |
| 2012-10-17T10:18:38 | 1.963 | 1.98 | 14.444 | 0.2342 | 0.1413 | 1464.2 | 999.29 |
| 2012-10-17T10:18:39 | 2.458 | 2.48 | 14.442 | 0.2342 | 0.1413 | 1464.2 | 999.29 |
| 2012-10-17T10:18:40 | 3.013 | 3.04 | 14.446 | 0.2342 | 0.1413 | 1464.2 | 999.29 |
| 2012-10-17T10:18:41 | 3.569 | 3.60 | 14.445 | 0.2343 | 0.1413 | 1464.2 | 999.29 |
| 2012-10-17T10:18:42 | 4.143 | 4.18 | 14.438 | 0.2342 | 0.1413 | 1464.2 | 999.29 |
| 2012-10-17T10:18:43 | 4.718 | 4.76 | 14.430 | 0.2341 | 0.1413 | 1464.2 | 999.29 |
| 2012-10-17T10:18:44 | 5.303 | 5.35 | 14.423 | 0.2341 | 0.1413 | 1464.2 | 999.30 |
| 2012-10-17T10:18:45 | 5.868 | 5.92 | 14.419 | 0.2341 | 0.1413 | 1464.2 | 999.30 |
| 2012-10-17T10:18:46 | 6.453 | 6.51 | 14.418 | 0.2341 | 0.1413 | 1464.2 | 999.30 |
| 2012-10-17T10:18:47 | 7.048 | 7.11 | 14.418 | 0.2341 | 0.1413 | 1464.2 | 999.30 |
| 2012-10-17T10:18:48 | 7.583 | 7.65 | 14.419 | 0.2341 | 0.1413 | 1464.2 | 999.30 |
| 2012-10-17T10:18:49 | 8.148 | 8.22 | 14.418 | 0.2341 | 0.1413 | 1464.2 | 999.30 |
| 2012-10-17T10:18:50 | 8.723 | 8.80 | 14.415 | 0.2341 | 0.1413 | 1464.2 | 999.30 |
| 2012-10-17T10:18:51 | 9.278 | 9.36 | 14.417 | 0.2341 | 0.1413 | 1464.2 | 999.30 |
| 2012-10-17T10:18:52 | 9.833 | 9.92 | 14.414 | 0.2341 | 0.1413 | 1464.2 | 999.30 |
| 2012-10-17T10:18:53 | 10.418 | 10.51 | 14.409 | 0.2342 | 0.1414 | 1464.2 | 999.30 |
| 2012-10-17T10:18:54 | 10.973 | 11.07 | 14.409 | 0.2341 | 0.1414 | 1464.2 | 999.30 |
| 2012-10-17T10:18:55 | 11.508 | 11.61 | 14.355 | 0.2348 | 0.1419 | 1464.0 | 999.31 |
| 2012-10-17T10:18:56 | 12.073 | 12.18 | 14.170 | 0.2356 | 0.1430 | 1463.4 | 999.33 |
| 2012-10-17T10:18:57 | 12.638 | 12.75 | 13.759 | 0.2372 | 0.1454 | 1461.9 | 999.39 |
| 2012-10-17T10:18:58 | 13.134 | 13.25 | 13.332 | 0.2373 | 0.1469 | 1460.4 | 999.45 |
| 2012-10-17T10:18:59 | 13.768 | 13.89 | 12.850 | 0.2345 | 0.1469 | 1458.6 | 999.51 |
| 2012-10-17T10:19:00 | 14.452 | 14.58 | 12.040 | 0.2309 | 0.1474 | 1455.6 | 999.61 |
| 2012-10-17T10:19:01 | 15.126 | 15.26 | 11.568 | 0.2290 | 0.1479 | 1453.8 | 999.66 |
| 2012-10-17T10:19:02 | 15.790 | 15.93 | 11.277 | 0.2298 | 0.1494 | 1452.7 | 999.70 |
| 2012-10-17T10:19:03 | 16.554 | 16.70 | 10.694 | 0.2290 | 0.1511 | 1450.5 | 999.76 |
| 2012-10-17T10:19:04 | 17.366 | 17.52 | 10.318 | 0.2278 | 0.1517 | 1449.0 | 999.79 |
| 2012-10-17T10:19:05 | 18.169 | 18.33 | 10.039 | 0.2267 | 0.1520 | 1447.9 | 999.82 |
| 2012-10-17T10:19:06 | 18.903 | 19.07 | 9.774 | 0.2254 | 0.1521 | 1446.9 | 999.84 |
| 2012-10-17T10:19:07 | 19.656 | 19.83 | 9.676 | 0.2253 | 0.1524 | 1446.5 | 999.85 |
| 2012-10-17T10:19:08 | 20.390 | 20.57 | 9.567 | 0.2252 | 0.1528 | 1446.1 | 999.86 |
| 2012-10-17T10:19:09 | 21.123 | 21.31 | 9.447 | 0.2249 | 0.1530 | 1445.6 | 999.87 |
| 2012-10-17T10:19:10 | 21.886 | 22.08 | 8.754 | 0.2203 | 0.1525 | 1442.8 | 999.92 |
| 2012-10-17T10:19:11 | 22.620 | 22.82 | 8.311 | 0.2171 | 0.1520 | 1441.0 | 999.95 |
| 2012-10-17T10:19:12 | 23.333 | 23.54 | 8.068 | 0.2165 | 0.1525 | 1440.0 | 999.97 |
| 2012-10-17T10:19:13 | 24.087 | 24.30 | 7.907 | 0.2160 | 0.1528 | 1439.3 | 999.98 |
| 2012-10-17T10:19:14 | 24.810 | 25.03 | 7.793 | 0.2158 | 0.1532 | 1438.9 | 999.98 |
| 2012-10-17T10:19:15 | 25.544 | 25.77 | 7.645 | 0.2155 | 0.1535 | 1438.3 | 999.99 |
| 2012-10-17T10:19:16 | 26.267 | 26.50 | 7.399 | 0.2151 | 0.1542 | 1437.2 | 1000.00 |
| 2012-10-17T10:19:17 | 27.011 | 27.25 | 7.272 | 0.2147 | 0.1544 | 1436.7 | 1000.00 |
| 2012-10-17T10:19:18 | 27.744 | 27.99 | 7.226 | 0.2146 | 0.1545 | 1436.5 | 1000.00 |
| 2012-10-17T10:19:19 | 28.458 | 28.71 | 7.181 | 0.2145 | 0.1546 | 1436.3 | 1000.00 |
| 2012-10-17T10:19:20 | 29.211 | 29.47 | 7.000 | 0.2141 | 0.1551 | 1435.6 | 1000.00 |
| 2012-10-17T10:19:21 | 29.954 | 30.22 | 6.796 | 0.2160 | 0.1574 | 1434.7 | 1000.00 |
| 2012-10-17T10:19:22 | 30.668 | 30.94 | 6.546 | 0.2144 | 0.1572 | 1433.7 | 1000.00 |
| 2012-10-17T10:19:23 | 31.381 | 31.66 | 6.513 | 0.2143 | 0.1573 | 1433.5 | 1000.10 |
| 2012-10-17T10:19:24 | 32.125 | 32.41 | 6.476 | 0.2141 | 0.1573 | 1433.4 | 1000.10 |
| 2012-10-17T10:19:25 | 32.888 | 33.18 | 6.365 | 0.2137 | 0.1575 | 1432.9 | 1000.10 |
| 2012-10-17T10:19:26 | 33.612 | 33.91 | 6.324 | 0.2153 | 0.1589 | 1432.8 | 1000.10 |
| 2012-10-17T10:19:27 | 34.385 | 34.69 | 6.254 | 0.2145 | 0.1585 | 1432.5 | 1000.10 |
| 2012-10-17T10:19:28 | 35.148 | 35.46 | 6.153 | 0.2133 | 0.1581 | 1432.0 | 1000.10 |
| 2012-10-17T10:19:29 | 35.881 | 36.20 | 6.097 | 0.2125 | 0.1577 | 1431.8 | 1000.10 |
| 2012-10-17T10:19:30 | 36.644 | 36.97 | 6.060 | 0.2123 | 0.1577 | 1431.6 | 1000.10 |
| 2012-10-17T10:19:31 | 37.398 | 37.73 | 6.026 | 0.2130 | 0.1584 | 1431.5 | 1000.10 |
| 2012-10-17T10:19:32 | 38.131 | 38.47 | 6.006 | 0.2136 | 0.1589 | 1431.4 | 1000.10 |
| 2012-10-17T10:19:33 | 38.894 | 39.24 | 5.952 | 0.2131 | 0.1588 | 1431.2 | 1000.10 |
| 2012-10-17T10:19:34 | 39.667 | 40.02 | 5.886 | 0.2125 | 0.1586 | 1430.9 | 1000.10 |
| 2012-10-17T10:19:35 | 40.391 | 40.75 | 5.833 | 0.2123 | 0.1587 | 1430.7 | 1000.10 |
| 2012-10-17T10:19:36 | 41.134 | 41.50 | 5.825 | 0.2121 | 0.1585 | 1430.7 | 1000.10 |
| 2012-10-17T10:19:37 | 41.897 | 42.27 | 5.770 | 0.2117 | 0.1585 | 1430.5 | 1000.10 |
| 2012-10-17T10:19:38 | 42.640 | 43.02 | 5.681 | 0.2118 | 0.1589 | 1430.1 | 1000.10 |
| 2012-10-17T10:19:39 | 43.354 | 43.74 | 5.602 | 0.2119 | 0.1594 | 1429.7 | 1000.10 |
| 2012-10-17T10:19:40 | 44.097 | 44.49 | 5.591 | 0.2118 | 0.1593 | 1429.7 | 1000.10 |
| 2012-10-17T10:19:41 | 44.851 | 45.25 | 5.505 | 0.2115 | 0.1595 | 1429.3 | 1000.10 |
| 2012-10-17T10:19:42 | 45.574 | 45.98 | 5.474 | 0.2114 | 0.1596 | 1429.2 | 1000.10 |
| 2012-10-17T10:19:43 | 46.288 | 46.70 | 5.429 | 0.2113 | 0.1596 | 1429.0 | 1000.10 |
| 2012-10-17T10:19:44 | 47.041 | 47.46 | 5.368 | 0.2110 | 0.1597 | 1428.8 | 1000.10 |
| 2012-10-17T10:19:45 | 47.784 | 48.21 | 5.327 | 0.2108 | 0.1597 | 1428.6 | 1000.10 |
| 2012-10-17T10:19:46 | 48.508 | 48.94 | 5.297 | 0.2105 | 0.1597 | 1428.5 | 1000.10 |
| 2012-10-17T10:19:47 | 49.231 | 49.67 | 5.288 | 0.2105 | 0.1596 | 1428.4 | 1000.10 |
| 2012-10-17T10:19:48 | 49.994 | 50.44 | 5.274 | 0.2104 | 0.1597 | 1428.4 | 1000.10 |
| 2012-10-17T10:19:49 | 50.718 | 51.17 | 5.237 | 0.2099 | 0.1594 | 1428.2 | 1000.10 |
| 2012-10-17T10:19:50 | 51.451 | 51.91 | 5.204 | 0.2097 | 0.1594 | 1428.1 | 1000.10 |
| 2012-10-17T10:19:51 | 52.194 | 52.66 | 5.165 | 0.2094 | 0.1593 | 1427.9 | 1000.10 |
| 2012-10-17T10:19:52 | 52.938 | 53.41 | 5.127 | 0.2093 | 0.1595 | 1427.8 | 1000.10 |
| 2012-10-17T10:19:53 | 53.651 | 54.13 | 5.098 | 0.2094 | 0.1596 | 1427.7 | 1000.10 |
| 2012-10-17T10:19:54 | 54.394 | 54.88 | 5.080 | 0.2093 | 0.1596 | 1427.6 | 1000.10 |
| 2012-10-17T10:19:55 | 55.177 | 55.67 | 5.067 | 0.2093 | 0.1597 | 1427.6 | 1000.10 |
| 2012-10-17T10:19:56 | 55.861 | 56.36 | 5.053 | 0.2096 | 0.1600 | 1427.5 | 1000.10 |
| 2012-10-17T10:19:57 | 56.565 | 57.07 | 5.019 | 0.2094 | 0.1600 | 1427.4 | 1000.10 |
| 2012-10-17T10:19:58 | 57.308 | 57.82 | 4.978 | 0.2092 | 0.1600 | 1427.2 | 1000.10 |
| 2012-10-17T10:19:59 | 57.952 | 58.47 | 4.940 | 0.2091 | 0.1601 | 1427.0 | 1000.10 |
| 2012-10-17T10:20:00 | 58.596 | 59.12 | 4.923 | 0.2090 | 0.1601 | 1427.0 | 1000.10 |
| 2012-10-17T10:20:01 | 59.270 | 59.80 | 4.908 | 0.2089 | 0.1601 | 1426.9 | 1000.10 |
| 2012-10-17T10:20:02 | 59.944 | 60.48 | 4.898 | 0.2088 | 0.1601 | 1426.9 | 1000.10 |
| 2012-10-17T10:20:03 | 60.568 | 61.11 | 4.887 | 0.2088 | 0.1601 | 1426.8 | 1000.10 |
| 2012-10-17T10:20:04 | 61.232 | 61.78 | 4.881 | 0.2088 | 0.1601 | 1426.8 | 1000.10 |
| 2012-10-17T10:20:05 | 61.886 | 62.44 | 4.863 | 0.2087 | 0.1601 | 1426.7 | 1000.10 |
| 2012-10-17T10:20:06 | 62.550 | 63.11 | 4.856 | 0.2086 | 0.1601 | 1426.7 | 1000.10 |
| 2012-10-17T10:20:07 | 63.204 | 63.77 | 4.846 | 0.2086 | 0.1601 | 1426.7 | 1000.10 |
| 2012-10-17T10:20:08 | 63.868 | 64.44 | 4.828 | 0.2084 | 0.1600 | 1426.6 | 1000.10 |
| 2012-10-17T10:20:09 | 64.522 | 65.10 | 4.818 | 0.2083 | 0.1600 | 1426.6 | 1000.10 |
| 2012-10-17T10:20:10 | 65.157 | 65.74 | 4.807 | 0.2083 | 0.1600 | 1426.5 | 1000.10 |
| 2012-10-17T10:20:11 | 65.831 | 66.42 | 4.799 | 0.2083 | 0.1601 | 1426.5 | 1000.10 |
| 2012-10-17T10:20:12 | 66.494 | 67.09 | 4.785 | 0.2082 | 0.1600 | 1426.5 | 1000.10 |
| 2012-10-17T10:20:13 | 67.198 | 67.80 | 4.771 | 0.2081 | 0.1600 | 1426.4 | 1000.10 |
| 2012-10-17T10:20:14 | 67.931 | 68.54 | 4.763 | 0.2080 | 0.1600 | 1426.4 | 1000.10 |
| 2012-10-17T10:20:15 | 68.645 | 69.26 | 4.731 | 0.2077 | 0.1599 | 1426.3 | 1000.10 |
| 2012-10-17T10:20:16 | 69.388 | 70.01 | 4.718 | 0.2075 | 0.1598 | 1426.2 | 1000.10 |
| 2012-10-17T10:20:17 | 70.171 | 70.80 | 4.705 | 0.2075 | 0.1598 | 1426.2 | 1000.10 |
| 2012-10-17T10:20:18 | 70.944 | 71.58 | 4.698 | 0.2075 | 0.1598 | 1426.1 | 1000.10 |
| 2012-10-17T10:20:19 | 71.667 | 72.31 | 4.679 | 0.2074 | 0.1598 | 1426.1 | 1000.10 |
| 2012-10-17T10:20:20 | 72.480 | 73.13 | 4.662 | 0.2074 | 0.1599 | 1426.0 | 1000.10 |
| 2012-10-17T10:20:21 | 73.312 | 73.97 | 4.652 | 0.2073 | 0.1599 | 1426.0 | 1000.10 |
| 2012-10-17T10:20:22 | 74.095 | 74.76 | 4.642 | 0.2072 | 0.1599 | 1425.9 | 1000.10 |
| 2012-10-17T10:20:23 | 74.819 | 75.49 | 4.624 | 0.2071 | 0.1599 | 1425.9 | 1000.10 |
| 2012-10-17T10:20:24 | 75.572 | 76.25 | 4.607 | 0.2070 | 0.1598 | 1425.8 | 1000.10 |
| 2012-10-17T10:20:25 | 76.404 | 77.09 | 4.595 | 0.2069 | 0.1598 | 1425.8 | 1000.10 |
| 2012-10-17T10:20:26 | 77.207 | 77.90 | 4.589 | 0.2069 | 0.1598 | 1425.8 | 1000.10 |
| 2012-10-17T10:20:27 | 77.950 | 78.65 | 4.572 | 0.2069 | 0.1599 | 1425.7 | 1000.10 |
| 2012-10-17T10:20:28 | 78.673 | 79.38 | 4.542 | 0.2067 | 0.1599 | 1425.6 | 1000.10 |
| 2012-10-17T10:20:29 | 79.456 | 80.17 | 4.522 | 0.2066 | 0.1599 | 1425.5 | 1000.10 |
| 2012-10-17T10:20:30 | 80.308 | 81.03 | 4.503 | 0.2065 | 0.1599 | 1425.4 | 1000.10 |
| 2012-10-17T10:20:31 | 81.081 | 81.81 | 4.496 | 0.2064 | 0.1599 | 1425.4 | 1000.10 |
| 2012-10-17T10:20:32 | 81.795 | 82.53 | 4.493 | 0.2064 | 0.1599 | 1425.4 | 1000.10 |
| 2012-10-17T10:20:33 | 82.577 | 83.32 | 4.486 | 0.2064 | 0.1599 | 1425.4 | 1000.10 |
| 2012-10-17T10:20:34 | 83.420 | 84.17 | 4.484 | 0.2065 | 0.1600 | 1425.4 | 1000.10 |
| 2012-10-17T10:20:35 | 84.242 | 85.00 | 4.478 | 0.2065 | 0.1600 | 1425.4 | 1000.10 |
| 2012-10-17T10:20:36 | 84.995 | 85.76 | 4.478 | 0.2066 | 0.1601 | 1425.4 | 1000.10 |
| 2012-10-17T10:20:37 | 85.758 | 86.53 | 4.485 | 0.2067 | 0.1602 | 1425.4 | 1000.10 |
| 2012-10-17T10:20:38 | 86.541 | 87.32 | 4.478 | 0.2066 | 0.1601 | 1425.4 | 1000.10 |
| 2012-10-17T10:20:39 | 87.344 | 88.13 | 4.476 | 0.2067 | 0.1602 | 1425.4 | 1000.10 |
| 2012-10-17T10:20:40 | 88.126 | 88.92 | 4.448 | 0.2064 | 0.1601 | 1425.3 | 1000.10 |
| 2012-10-17T10:20:41 | 88.879 | 89.68 | 4.440 | 0.2064 | 0.1601 | 1425.3 | 1000.10 |
| 2012-10-17T10:20:42 | 89.623 | 90.43 | 4.439 | 0.2065 | 0.1602 | 1425.3 | 1000.10 |
| 2012-10-17T10:20:43 | 90.425 | 91.24 | 4.433 | 0.2065 | 0.1602 | 1425.3 | 1000.10 |
| 2012-10-17T10:20:44 | 91.228 | 92.05 | 4.429 | 0.2065 | 0.1602 | 1425.2 | 1000.10 |
| 2012-10-17T10:20:45 | 91.961 | 92.79 | 4.420 | 0.2065 | 0.1602 | 1425.2 | 1000.10 |
| 2012-10-17T10:20:46 | 92.665 | 93.50 | 4.416 | 0.2065 | 0.1602 | 1425.2 | 1000.10 |
| 2012-10-17T10:20:47 | 93.428 | 94.27 | 4.412 | 0.2065 | 0.1602 | 1425.2 | 1000.10 |
| 2012-10-17T10:20:48 | 94.200 | 95.05 | 4.388 | 0.2062 | 0.1602 | 1425.1 | 1000.10 |
| 2012-10-17T10:20:49 | 94.963 | 95.82 | 4.369 | 0.2060 | 0.1601 | 1425.0 | 1000.10 |
| 2012-10-17T10:20:50 | 95.687 | 96.55 | 4.357 | 0.2060 | 0.1601 | 1425.0 | 1000.10 |
| 2012-10-17T10:20:51 | 96.440 | 97.31 | 4.353 | 0.2060 | 0.1601 | 1425.0 | 1000.10 |
| 2012-10-17T10:20:52 | 97.183 | 98.06 | 4.342 | 0.2059 | 0.1601 | 1424.9 | 1000.10 |
| 2012-10-17T10:20:53 | 97.985 | 98.87 | 4.330 | 0.2059 | 0.1601 | 1424.9 | 1000.10 |
| 2012-10-17T10:20:54 | 98.758 | 99.65 | 4.326 | 0.2059 | 0.1602 | 1424.9 | 1000.10 |
| 2012-10-17T10:20:55 | 99.501 | 100.40 | 4.321 | 0.2059 | 0.1602 | 1424.9 | 1000.10 |
| 2012-10-17T10:20:56 | 100.235 | 101.14 | 4.316 | 0.2059 | 0.1603 | 1424.9 | 1000.10 |
| 2012-10-17T10:20:57 | 101.047 | 101.96 | 4.319 | 0.2060 | 0.1603 | 1424.9 | 1000.10 |
| 2012-10-17T10:20:58 | 101.840 | 102.76 | 4.319 | 0.2060 | 0.1603 | 1424.9 | 1000.10 |
| 2012-10-17T10:20:59 | 102.603 | 103.53 | 4.318 | 0.2060 | 0.1603 | 1424.9 | 1000.10 |
| 2012-10-17T10:21:00 | 103.346 | 104.28 | 4.317 | 0.2060 | 0.1603 | 1424.9 | 1000.10 |
| 2012-10-17T10:21:01 | 104.099 | 105.04 | 4.307 | 0.2060 | 0.1603 | 1424.9 | 1000.10 |
| 2012-10-17T10:21:02 | 104.832 | 105.78 | 4.304 | 0.2059 | 0.1603 | 1424.9 | 1000.10 |
| 2012-10-17T10:21:03 | 105.545 | 106.50 | 4.301 | 0.2060 | 0.1604 | 1424.9 | 1000.10 |
| 2012-10-17T10:21:04 | 106.170 | 107.13 | 4.299 | 0.2061 | 0.1604 | 1424.9 | 1000.10 |
| 2012-10-17T10:21:05 | 106.754 | 107.72 | 4.303 | 0.2062 | 0.1605 | 1424.9 | 1000.10 |
| 2012-10-17T10:21:06 | 107.388 | 108.36 | 4.310 | 0.2063 | 0.1606 | 1425.0 | 1000.10 |
| 2012-10-17T10:21:07 | 108.062 | 109.04 | 4.298 | 0.2063 | 0.1606 | 1424.9 | 1000.10 |
| 2012-10-17T10:21:08 | 108.716 | 109.70 | 4.288 | 0.2063 | 0.1606 | 1424.9 | 1000.10 |
| 2012-10-17T10:21:09 | 109.320 | 110.31 | 4.286 | 0.2063 | 0.1606 | 1424.9 | 1000.10 |
| 2012-10-17T10:21:10 | 109.925 | 110.92 | 4.285 | 0.2063 | 0.1606 | 1424.9 | 1000.10 |
| 2012-10-17T10:21:11 | 110.598 | 111.60 | 4.286 | 0.2063 | 0.1606 | 1424.9 | 1000.10 |
| 2012-10-17T10:21:12 | 111.262 | 112.27 | 4.284 | 0.2063 | 0.1606 | 1424.9 | 1000.10 |
| 2012-10-17T10:21:13 | 111.906 | 112.92 | 4.282 | 0.2063 | 0.1607 | 1424.9 | 1000.10 |
| 2012-10-17T10:21:14 | 112.511 | 113.53 | 4.282 | 0.2063 | 0.1607 | 1424.9 | 1000.10 |
| 2012-10-17T10:21:15 | 113.125 | 114.15 | 4.282 | 0.2064 | 0.1607 | 1424.9 | 1000.10 |
| 2012-10-17T10:21:16 | 113.799 | 114.83 | 4.280 | 0.2063 | 0.1607 | 1424.9 | 1000.10 |
| 2012-10-17T10:21:17 | 114.482 | 115.52 | 4.276 | 0.2064 | 0.1607 | 1424.9 | 1000.10 |
| 2012-10-17T10:21:18 | 115.106 | 116.15 | 4.272 | 0.2064 | 0.1608 | 1424.9 | 1000.10 |
| 2012-10-17T10:21:19 | 115.711 | 116.76 | 4.263 | 0.2064 | 0.1608 | 1424.9 | 1000.10 |
| 2012-10-17T10:21:20 | 116.374 | 117.43 | 4.261 | 0.2064 | 0.1608 | 1424.9 | 1000.10 |
| 2012-10-17T10:21:21 | 117.048 | 118.11 | 4.262 | 0.2064 | 0.1608 | 1424.9 | 1000.10 |
| 2012-10-17T10:21:22 | 117.702 | 118.77 | 4.260 | 0.2064 | 0.1608 | 1424.9 | 1000.10 |
| 2012-10-17T10:21:23 | 118.326 | 119.40 | 4.259 | 0.2064 | 0.1609 | 1424.9 | 1000.10 |
| 2012-10-17T10:21:24 | 118.950 | 120.03 | 4.254 | 0.2065 | 0.1609 | 1424.9 | 1000.10 |
| 2012-10-17T10:21:25 | 119.634 | 120.72 | 4.248 | 0.2065 | 0.1609 | 1424.9 | 1000.10 |
| 2012-10-17T10:21:26 | 120.288 | 121.38 | 4.243 | 0.2065 | 0.1610 | 1424.9 | 1000.10 |
| 2012-10-17T10:21:27 | 120.932 | 122.03 | 4.241 | 0.2066 | 0.1611 | 1424.9 | 1000.10 |
| 2012-10-17T10:21:28 | 121.566 | 122.67 | 4.239 | 0.2066 | 0.1611 | 1424.9 | 1000.10 |
| 2012-10-17T10:21:29 | 122.210 | 123.32 | 4.237 | 0.2066 | 0.1611 | 1424.9 | 1000.10 |
| 2012-10-17T10:21:30 | 122.874 | 123.99 | 4.235 | 0.2067 | 0.1611 | 1424.9 | 1000.10 |
| 2012-10-17T10:21:31 | 123.547 | 124.67 | 4.234 | 0.2067 | 0.1611 | 1424.9 | 1000.10 |
| 2012-10-17T10:21:32 | 124.162 | 125.29 | 4.234 | 0.2067 | 0.1612 | 1424.9 | 1000.10 |
| 2012-10-17T10:21:33 | 124.786 | 125.92 | 4.232 | 0.2067 | 0.1612 | 1424.9 | 1000.10 |
| 2012-10-17T10:21:34 | 125.459 | 126.60 | 4.230 | 0.2068 | 0.1613 | 1424.9 | 1000.10 |
| 2012-10-17T10:21:35 | 126.113 | 127.26 | 4.226 | 0.2068 | 0.1613 | 1424.9 | 1000.10 |
| 2012-10-17T10:21:36 | 126.747 | 127.90 | 4.221 | 0.2069 | 0.1614 | 1424.9 | 1000.10 |
| 2012-10-17T10:21:37 | 127.381 | 128.54 | 4.219 | 0.2069 | 0.1614 | 1424.9 | 1000.10 |
| 2012-10-17T10:21:38 | 128.025 | 129.19 | 4.215 | 0.2070 | 0.1615 | 1424.9 | 1000.10 |
| 2012-10-17T10:21:39 | 128.679 | 129.85 | 4.213 | 0.2070 | 0.1615 | 1424.9 | 1000.10 |
| 2012-10-17T10:21:40 | 129.333 | 130.51 | 4.213 | 0.2070 | 0.1615 | 1424.9 | 1000.10 |
| 2012-10-17T10:21:41 | 129.967 | 131.15 | 4.206 | 0.2070 | 0.1615 | 1424.8 | 1000.10 |
| 2012-10-17T10:21:42 | 130.621 | 131.81 | 4.205 | 0.2070 | 0.1615 | 1424.9 | 1000.10 |
| 2012-10-17T10:21:43 | 131.255 | 132.45 | 4.205 | 0.2071 | 0.1616 | 1424.9 | 1000.10 |
| 2012-10-17T10:21:44 | 131.909 | 133.11 | 4.204 | 0.2071 | 0.1616 | 1424.9 | 1000.10 |
| 2012-10-17T10:21:45 | 132.543 | 133.75 | 4.199 | 0.2072 | 0.1617 | 1424.9 | 1000.10 |
| 2012-10-17T10:21:46 | 133.177 | 134.39 | 4.199 | 0.2073 | 0.1618 | 1424.9 | 1000.10 |
| 2012-10-17T10:21:47 | 133.771 | 134.99 | 4.200 | 0.2073 | 0.1618 | 1424.9 | 1000.10 |
| 2012-10-17T10:21:48 | 134.376 | 135.60 | 4.199 | 0.2073 | 0.1618 | 1424.9 | 1000.10 |
| 2012-10-17T10:21:49 | 134.950 | 136.18 | 4.198 | 0.2074 | 0.1618 | 1424.9 | 1000.10 |
| 2012-10-17T10:21:50 | 135.495 | 136.73 | 4.197 | 0.2074 | 0.1619 | 1424.9 | 1000.10 |
| 2012-10-17T10:21:51 | 136.070 | 137.31 | 4.198 | 0.2074 | 0.1619 | 1424.9 | 1000.10 |
| 2012-10-17T10:21:52 | 136.654 | 137.90 | 4.199 | 0.2075 | 0.1619 | 1424.9 | 1000.10 |
| 2012-10-17T10:21:53 | 137.209 | 138.46 | 4.198 | 0.2075 | 0.1619 | 1424.9 | 1000.10 |
| 2012-10-17T10:21:54 | 137.694 | 138.95 | 4.198 | 0.2075 | 0.1619 | 1424.9 | 1000.10 |
| 2012-10-17T10:21:55 | 138.140 | 139.40 | 4.198 | 0.2075 | 0.1619 | 1424.9 | 1000.10 |
| 2012-10-17T10:21:56 | 138.556 | 139.82 | 4.200 | 0.2076 | 0.1620 | 1425.0 | 1000.10 |
| 2012-10-17T10:21:57 | 138.883 | 140.15 | 4.201 | 0.2076 | 0.1620 | 1425.0 | 1000.10 |
| 2012-10-17T10:21:58 | 139.240 | 140.51 | 4.201 | 0.2076 | 0.1620 | 1425.0 | 1000.10 |
| 2012-10-17T10:21:59 | 139.557 | 140.83 | 4.203 | 0.2076 | 0.1620 | 1425.0 | 1000.10 |
| 2012-10-17T10:22:00 | 139.874 | 141.15 | 4.201 | 0.2077 | 0.1621 | 1425.0 | 1000.10 |
| 2012-10-17T10:22:01 | 140.211 | 141.49 | 4.201 | 0.2078 | 0.1622 | 1425.0 | 1000.10 |
| 2012-10-17T10:22:02 | 140.557 | 141.84 | 4.203 | 0.2079 | 0.1622 | 1425.0 | 1000.10 |
| 2012-10-17T10:22:03 | 140.884 | 142.17 | 4.203 | 0.2079 | 0.1623 | 1425.0 | 1000.10 |
| 2012-10-17T10:22:04 | 140.884 | 142.17 | 4.204 | 0.2079 | 0.1622 | 1425.0 | 1000.10 |
| 2012-10-17T10:22:05 | 140.884 | 142.17 | 4.204 | 0.2079 | 0.1622 | 1425.0 | 1000.10 |
| 2012-10-17T10:22:06 | 140.884 | 142.17 | 4.204 | 0.2079 | 0.1622 | 1425.0 | 1000.10 |
| 2012-10-17T10:22:07 | 140.894 | 142.18 | 4.204 | 0.2078 | 0.1622 | 1425.0 | 1000.10 |
| 2012-10-17T10:22:08 | 140.894 | 142.18 | 4.204 | 0.2078 | 0.1621 | 1425.0 | 1000.10 |
| 2012-10-17T10:22:09 | 140.894 | 142.18 | 4.205 | 0.2078 | 0.1621 | 1425.0 | 1000.10 |
| 2012-10-17T10:22:10 | 140.884 | 142.17 | 4.205 | 0.2078 | 0.1621 | 1425.0 | 1000.10 |
| 2012-10-17T10:22:11 | 140.894 | 142.18 | 4.204 | 0.2078 | 0.1621 | 1425.0 | 1000.10 |
| 2012-10-17T10:22:12 | 140.894 | 142.18 | 4.205 | 0.2078 | 0.1621 | 1425.0 | 1000.10 |
| 2012-10-17T10:22:13 | 140.894 | 142.18 | 4.203 | 0.2078 | 0.1621 | 1425.0 | 1000.10 |
| 2012-10-17T10:22:14 | 140.894 | 142.18 | 4.203 | 0.2078 | 0.1621 | 1425.0 | 1000.10 |
| 2012-10-17T10:22:15 | 140.904 | 142.19 | 4.203 | 0.2079 | 0.1622 | 1425.0 | 1000.10 |
| 2012-10-17T10:22:16 | 140.894 | 142.18 | 4.203 | 0.2079 | 0.1622 | 1425.0 | 1000.10 |
| 2012-10-17T10:22:17 | 140.894 | 142.18 | 4.203 | 0.2079 | 0.1622 | 1425.0 | 1000.10 |
| 2012-10-17T10:22:18 | 140.904 | 142.19 | 4.203 | 0.2078 | 0.1622 | 1425.0 | 1000.10 |
| 2012-10-17T10:22:19 | 140.904 | 142.19 | 4.203 | 0.2079 | 0.1622 | 1425.0 | 1000.10 |
| 2012-10-17T10:22:20 | 140.904 | 142.19 | 4.204 | 0.2079 | 0.1622 | 1425.0 | 1000.10 |
| 2012-10-17T10:22:21 | 140.914 | 142.20 | 4.203 | 0.2079 | 0.1623 | 1425.0 | 1000.10 |
| 2012-10-17T10:22:22 | 140.894 | 142.18 | 4.204 | 0.2079 | 0.1623 | 1425.0 | 1000.10 |
| 2012-10-17T10:22:23 | 140.894 | 142.18 | 4.204 | 0.2080 | 0.1623 | 1425.0 | 1000.10 |
| 2012-10-17T10:22:24 | 140.894 | 142.18 | 4.204 | 0.2080 | 0.1623 | 1425.0 | 1000.10 |
| 2012-10-17T10:22:25 | 140.914 | 142.20 | 4.203 | 0.2080 | 0.1623 | 1425.0 | 1000.10 |
| 2012-10-17T10:22:26 | 140.894 | 142.18 | 4.203 | 0.2080 | 0.1623 | 1425.0 | 1000.10 |
| 2012-10-17T10:22:27 | 140.894 | 142.18 | 4.204 | 0.2080 | 0.1623 | 1425.0 | 1000.10 |
| 2012-10-17T10:22:28 | 140.894 | 142.18 | 4.204 | 0.2080 | 0.1623 | 1425.0 | 1000.10 |
| 2012-10-17T10:22:29 | 140.914 | 142.20 | 4.204 | 0.2080 | 0.1623 | 1425.0 | 1000.10 |
| 2012-10-17T10:22:30 | 140.904 | 142.19 | 4.204 | 0.2080 | 0.1623 | 1425.0 | 1000.10 |
| 2012-10-17T10:22:31 | 140.904 | 142.19 | 4.204 | 0.2080 | 0.1623 | 1425.0 | 1000.10 |
| 2012-10-17T10:22:32 | 140.894 | 142.18 | 4.205 | 0.2080 | 0.1623 | 1425.0 | 1000.10 |
| 2012-10-17T10:22:33 | 140.894 | 142.18 | 4.205 | 0.2080 | 0.1623 | 1425.0 | 1000.10 |
| 2012-10-17T10:22:34 | 140.914 | 142.20 | 4.205 | 0.2080 | 0.1623 | 1425.0 | 1000.10 |
| 2012-10-17T10:22:35 | 140.904 | 142.19 | 4.205 | 0.2080 | 0.1623 | 1425.0 | 1000.10 |
| 2012-10-17T10:22:36 | 140.894 | 142.18 | 4.205 | 0.2080 | 0.1623 | 1425.0 | 1000.10 |
| 2012-10-17T10:22:37 | 140.904 | 142.19 | 4.205 | 0.2080 | 0.1623 | 1425.0 | 1000.10 |
| 2012-10-17T10:22:38 | 140.904 | 142.19 | 4.205 | 0.2080 | 0.1623 | 1425.0 | 1000.10 |
| 2012-10-17T10:22:39 | 140.904 | 142.19 | 4.204 | 0.2080 | 0.1623 | 1425.0 | 1000.10 |
| 2012-10-17T10:22:40 | 140.904 | 142.19 | 4.205 | 0.2080 | 0.1623 | 1425.0 | 1000.10 |
| 2012-10-17T10:22:41 | 140.904 | 142.19 | 4.204 | 0.2080 | 0.1623 | 1425.0 | 1000.10 |
| 2012-10-17T10:22:42 | 140.904 | 142.19 | 4.204 | 0.2080 | 0.1623 | 1425.0 | 1000.10 |
| 2012-10-17T10:22:43 | 140.894 | 142.18 | 4.205 | 0.2080 | 0.1623 | 1425.0 | 1000.10 |
| 2012-10-17T10:22:44 | 140.894 | 142.18 | 4.204 | 0.2080 | 0.1623 | 1425.0 | 1000.10 |
| 2012-10-17T10:22:45 | 140.884 | 142.17 | 4.206 | 0.2080 | 0.1623 | 1425.0 | 1000.10 |
| 2012-10-17T10:22:46 | 140.884 | 142.17 | 4.205 | 0.2080 | 0.1623 | 1425.0 | 1000.10 |
| 2012-10-17T10:22:47 | 140.894 | 142.18 | 4.205 | 0.2080 | 0.1623 | 1425.0 | 1000.10 |
| 2012-10-17T10:22:48 | 140.944 | 142.23 | 4.205 | 0.2080 | 0.1623 | 1425.0 | 1000.10 |
